sensor_id;sensor_type;location;lat;lon;timestamp;temperature;humidity
8643;DHT22;4359;49.358;11.256;2024-02-15T00:00:10;7.80;99.90
8643;DHT22;4359;49.358;11.256;2024-02-15T00:02:36;7.70;99.90
8643;DHT22;4359;49.358;11.256;2024-02-15T00:05:02;7.70;99.90
8643;DHT22;4359;49.358;11.256;2024-02-15T00:07:28;7.80;99.90
8643;DHT22;4359;49.358;11.256;2024-02-15T00:09:53;7.70;99.90
8643;DHT22;4359;49.358;11.256;2024-02-15T00:12:20;7.70;99.90
8643;DHT22;4359;49.358;11.256;2024-02-15T00:14:45;7.70;99.90
8643;DHT22;4359;49.358;11.256;2024-02-15T00:17:11;7.70;99.90
8643;DHT22;4359;49.358;11.256;2024-02-15T00:19:37;7.70;99.90
8643;DHT22;4359;49.358;11.256;2024-02-15T00:22:05;7.80;99.90
8643;DHT22;4359;49.358;11.256;2024-02-15T00:24:31;7.80;99.90
8643;DHT22;4359;49.358;11.256;2024-02-15T00:26:57;7.80;99.90
8643;DHT22;4359;49.358;11.256;2024-02-15T00:29:22;7.80;99.90
8643;DHT22;4359;49.358;11.256;2024-02-15T00:31:49;7.70;99.90
8643;DHT22;4359;49.358;11.256;2024-02-15T00:34:15;7.80;99.90
8643;DHT22;4359;49.358;11.256;2024-02-15T00:36:44;7.80;99.90
8643;DHT22;4359;49.358;11.256;2024-02-15T00:39:11;7.80;99.90
8643;DHT22;4359;49.358;11.256;2024-02-15T00:41:37;7.80;99.90
8643;DHT22;4359;49.358;11.256;2024-02-15T00:44:10;7.80;99.90
8643;DHT22;4359;49.358;11.256;2024-02-15T00:46:36;7.70;99.90
8643;DHT22;4359;49.358;11.256;2024-02-15T00:49:02;7.80;99.90
8643;DHT22;4359;49.358;11.256;2024-02-15T00:51:29;7.80;99.90
8643;DHT22;4359;49.358;11.256;2024-02-15T00:53:54;7.70;99.90
8643;DHT22;4359;49.358;11.256;2024-02-15T00:56:21;7.70;99.90
8643;DHT22;4359;49.358;11.256;2024-02-15T00:58:47;7.70;99.90
8643;DHT22;4359;49.358;11.256;2024-02-15T01:01:14;7.70;99.90
8643;DHT22;4359;49.358;11.256;2024-02-15T01:03:40;7.70;99.90
8643;DHT22;4359;49.358;11.256;2024-02-15T01:06:06;7.80;99.90
8643;DHT22;4359;49.358;11.256;2024-02-15T01:08:32;7.80;99.90
8643;DHT22;4359;49.358;11.256;2024-02-15T01:10:58;7.80;99.90
8643;DHT22;4359;49.358;11.256;2024-02-15T01:13:24;7.80;99.90
8643;DHT22;4359;49.358;11.256;2024-02-15T01:15:50;7.80;99.90
8643;DHT22;4359;49.358;11.256;2024-02-15T01:18:16;7.80;99.90
8643;DHT22;4359;49.358;11.256;2024-02-15T01:20:42;7.80;99.90
8643;DHT22;4359;49.358;11.256;2024-02-15T01:23:07;7.80;99.90
8643;DHT22;4359;49.358;11.256;2024-02-15T01:25:33;7.80;99.90
8643;DHT22;4359;49.358;11.256;2024-02-15T01:27:59;7.80;99.90
8643;DHT22;4359;49.358;11.256;2024-02-15T01:30:27;7.80;99.90
8643;DHT22;4359;49.358;11.256;2024-02-15T01:32:54;7.80;99.90
8643;DHT22;4359;49.358;11.256;2024-02-15T01:35:20;7.90;99.90
8643;DHT22;4359;49.358;11.256;2024-02-15T01:37:46;7.90;99.90
8643;DHT22;4359;49.358;11.256;2024-02-15T01:40:12;7.90;99.90
8643;DHT22;4359;49.358;11.256;2024-02-15T01:42:38;7.90;99.90
8643;DHT22;4359;49.358;11.256;2024-02-15T01:45:05;7.80;99.90
8643;DHT22;4359;49.358;11.256;2024-02-15T01:47:31;7.80;99.90
8643;DHT22;4359;49.358;11.256;2024-02-15T01:49:57;7.80;99.90
8643;DHT22;4359;49.358;11.256;2024-02-15T01:52:23;7.80;99.90
8643;DHT22;4359;49.358;11.256;2024-02-15T01:54:51;7.80;99.90
8643;DHT22;4359;49.358;11.256;2024-02-15T01:57:18;7.80;99.90
8643;DHT22;4359;49.358;11.256;2024-02-15T01:59:46;7.80;99.90
8643;DHT22;4359;49.358;11.256;2024-02-15T02:02:12;7.90;99.90
8643;DHT22;4359;49.358;11.256;2024-02-15T02:07:07;7.80;99.90
8643;DHT22;4359;49.358;11.256;2024-02-15T02:09:33;7.90;99.90
8643;DHT22;4359;49.358;11.256;2024-02-15T02:11:59;7.90;99.90
8643;DHT22;4359;49.358;11.256;2024-02-15T02:14:25;7.90;99.90
8643;DHT22;4359;49.358;11.256;2024-02-15T02:16:51;7.90;99.90
8643;DHT22;4359;49.358;11.256;2024-02-15T02:19:17;7.90;99.90
8643;DHT22;4359;49.358;11.256;2024-02-15T02:21:43;7.80;99.90
8643;DHT22;4359;49.358;11.256;2024-02-15T02:24:14;7.80;99.90
8643;DHT22;4359;49.358;11.256;2024-02-15T02:26:42;7.80;99.90
8643;DHT22;4359;49.358;11.256;2024-02-15T02:29:09;7.80;99.90
8643;DHT22;4359;49.358;11.256;2024-02-15T02:31:35;7.90;99.90
8643;DHT22;4359;49.358;11.256;2024-02-15T02:34:02;7.90;99.90
8643;DHT22;4359;49.358;11.256;2024-02-15T02:36:28;7.90;99.90
8643;DHT22;4359;49.358;11.256;2024-02-15T02:38:55;7.80;99.90
8643;DHT22;4359;49.358;11.256;2024-02-15T02:41:21;7.90;99.90
8643;DHT22;4359;49.358;11.256;2024-02-15T02:43:46;7.90;99.90
8643;DHT22;4359;49.358;11.256;2024-02-15T02:46:12;7.90;99.90
8643;DHT22;4359;49.358;11.256;2024-02-15T02:48:39;7.90;99.90
8643;DHT22;4359;49.358;11.256;2024-02-15T02:51:06;7.90;99.90
8643;DHT22;4359;49.358;11.256;2024-02-15T02:53:31;7.90;99.90
8643;DHT22;4359;49.358;11.256;2024-02-15T02:55:57;8.00;99.90
8643;DHT22;4359;49.358;11.256;2024-02-15T02:58:23;8.00;99.90
8643;DHT22;4359;49.358;11.256;2024-02-15T03:00:49;8.00;99.90
8643;DHT22;4359;49.358;11.256;2024-02-15T03:03:15;7.90;99.90
8643;DHT22;4359;49.358;11.256;2024-02-15T03:05:41;7.90;99.90
8643;DHT22;4359;49.358;11.256;2024-02-15T03:08:13;7.90;99.90
8643;DHT22;4359;49.358;11.256;2024-02-15T03:10:39;8.00;99.90
8643;DHT22;4359;49.358;11.256;2024-02-15T03:13:06;7.90;99.90
8643;DHT22;4359;49.358;11.256;2024-02-15T03:15:34;7.90;99.90
8643;DHT22;4359;49.358;11.256;2024-02-15T03:18:00;7.90;99.90
8643;DHT22;4359;49.358;11.256;2024-02-15T03:20:26;7.90;99.90
8643;DHT22;4359;49.358;11.256;2024-02-15T03:22:56;7.90;99.90
8643;DHT22;4359;49.358;11.256;2024-02-15T03:25:27;7.90;99.90
8643;DHT22;4359;49.358;11.256;2024-02-15T03:27:56;7.90;99.90
8643;DHT22;4359;49.358;11.256;2024-02-15T03:30:23;7.90;99.90
8643;DHT22;4359;49.358;11.256;2024-02-15T03:32:49;7.90;99.90
8643;DHT22;4359;49.358;11.256;2024-02-15T03:35:17;7.90;99.90
8643;DHT22;4359;49.358;11.256;2024-02-15T03:37:43;7.90;99.90
8643;DHT22;4359;49.358;11.256;2024-02-15T03:40:09;7.90;99.90
8643;DHT22;4359;49.358;11.256;2024-02-15T03:42:35;7.80;99.90
8643;DHT22;4359;49.358;11.256;2024-02-15T03:45:05;7.90;99.90
8643;DHT22;4359;49.358;11.256;2024-02-15T03:47:32;7.90;99.90
8643;DHT22;4359;49.358;11.256;2024-02-15T03:50:02;7.80;99.90
8643;DHT22;4359;49.358;11.256;2024-02-15T03:52:28;7.80;99.90
8643;DHT22;4359;49.358;11.256;2024-02-15T03:54:56;7.80;99.90
8643;DHT22;4359;49.358;11.256;2024-02-15T03:57:23;7.80;99.90
8643;DHT22;4359;49.358;11.256;2024-02-15T03:59:48;7.80;99.90
8643;DHT22;4359;49.358;11.256;2024-02-15T04:02:18;7.90;99.90
8643;DHT22;4359;49.358;11.256;2024-02-15T04:04:44;7.80;99.90
8643;DHT22;4359;49.358;11.256;2024-02-15T04:07:13;7.80;99.90
8643;DHT22;4359;49.358;11.256;2024-02-15T04:09:40;7.80;99.90
8643;DHT22;4359;49.358;11.256;2024-02-15T04:12:06;7.80;99.90
8643;DHT22;4359;49.358;11.256;2024-02-15T04:14:33;7.80;99.90
8643;DHT22;4359;49.358;11.256;2024-02-15T04:17:00;7.80;99.90
8643;DHT22;4359;49.358;11.256;2024-02-15T04:19:25;7.70;99.90
8643;DHT22;4359;49.358;11.256;2024-02-15T04:21:51;7.60;99.90
8643;DHT22;4359;49.358;11.256;2024-02-15T04:24:17;7.60;99.90
8643;DHT22;4359;49.358;11.256;2024-02-15T04:26:42;7.60;99.90
8643;DHT22;4359;49.358;11.256;2024-02-15T04:29:08;7.60;99.90
8643;DHT22;4359;49.358;11.256;2024-02-15T04:31:36;7.40;99.90
8643;DHT22;4359;49.358;11.256;2024-02-15T04:34:04;7.30;99.90
8643;DHT22;4359;49.358;11.256;2024-02-15T04:36:30;7.20;99.90
8643;DHT22;4359;49.358;11.256;2024-02-15T04:38:59;7.30;99.90
8643;DHT22;4359;49.358;11.256;2024-02-15T04:41:27;7.20;99.90
8643;DHT22;4359;49.358;11.256;2024-02-15T04:43:52;7.00;99.90
8643;DHT22;4359;49.358;11.256;2024-02-15T04:46:18;7.00;99.90
8643;DHT22;4359;49.358;11.256;2024-02-15T04:48:50;6.90;99.90
8643;DHT22;4359;49.358;11.256;2024-02-15T04:51:16;6.90;99.90
8643;DHT22;4359;49.358;11.256;2024-02-15T04:53:45;6.90;99.90
8643;DHT22;4359;49.358;11.256;2024-02-15T04:56:14;7.00;99.90
8643;DHT22;4359;49.358;11.256;2024-02-15T04:58:41;7.00;99.90
8643;DHT22;4359;49.358;11.256;2024-02-15T05:01:14;7.00;99.90
8643;DHT22;4359;49.358;11.256;2024-02-15T05:03:41;7.00;99.90
8643;DHT22;4359;49.358;11.256;2024-02-15T05:06:07;7.10;99.90
8643;DHT22;4359;49.358;11.256;2024-02-15T05:08:33;7.20;99.90
8643;DHT22;4359;49.358;11.256;2024-02-15T05:11:02;7.20;99.90
8643;DHT22;4359;49.358;11.256;2024-02-15T05:13:29;7.20;99.90
8643;DHT22;4359;49.358;11.256;2024-02-15T05:15:55;7.20;99.90
8643;DHT22;4359;49.358;11.256;2024-02-15T05:18:21;7.20;99.90
8643;DHT22;4359;49.358;11.256;2024-02-15T05:20:47;7.30;99.90
8643;DHT22;4359;49.358;11.256;2024-02-15T05:23:12;7.20;99.90
8643;DHT22;4359;49.358;11.256;2024-02-15T05:25:38;7.30;99.90
8643;DHT22;4359;49.358;11.256;2024-02-15T05:28:04;7.30;99.90
8643;DHT22;4359;49.358;11.256;2024-02-15T05:30:33;7.30;99.90
8643;DHT22;4359;49.358;11.256;2024-02-15T05:33:00;7.30;99.90
8643;DHT22;4359;49.358;11.256;2024-02-15T05:35:25;7.30;99.90
8643;DHT22;4359;49.358;11.256;2024-02-15T05:37:52;7.30;99.90
8643;DHT22;4359;49.358;11.256;2024-02-15T05:40:18;7.40;99.90
8643;DHT22;4359;49.358;11.256;2024-02-15T05:42:45;7.40;99.90
8643;DHT22;4359;49.358;11.256;2024-02-15T05:45:31;7.40;99.90
8643;DHT22;4359;49.358;11.256;2024-02-15T05:47:58;7.30;99.90
8643;DHT22;4359;49.358;11.256;2024-02-15T05:50:24;7.40;99.90
8643;DHT22;4359;49.358;11.256;2024-02-15T05:52:53;7.30;99.90
8643;DHT22;4359;49.358;11.256;2024-02-15T05:55:20;7.40;99.90
8643;DHT22;4359;49.358;11.256;2024-02-15T05:57:46;7.40;99.90
8643;DHT22;4359;49.358;11.256;2024-02-15T06:00:12;7.40;99.90
8643;DHT22;4359;49.358;11.256;2024-02-15T06:02:38;7.40;99.90
8643;DHT22;4359;49.358;11.256;2024-02-15T06:05:04;7.40;99.90
8643;DHT22;4359;49.358;11.256;2024-02-15T06:07:31;7.40;99.90
8643;DHT22;4359;49.358;11.256;2024-02-15T06:09:59;7.30;99.90
8643;DHT22;4359;49.358;11.256;2024-02-15T06:12:29;7.30;99.90
8643;DHT22;4359;49.358;11.256;2024-02-15T06:14:55;7.20;99.90
8643;DHT22;4359;49.358;11.256;2024-02-15T06:17:21;7.30;99.90
8643;DHT22;4359;49.358;11.256;2024-02-15T06:19:47;7.30;99.90
8643;DHT22;4359;49.358;11.256;2024-02-15T06:22:13;7.30;99.90
8643;DHT22;4359;49.358;11.256;2024-02-15T06:24:40;7.40;99.90
8643;DHT22;4359;49.358;11.256;2024-02-15T06:27:07;7.40;99.90
8643;DHT22;4359;49.358;11.256;2024-02-15T06:29:32;7.40;99.90
8643;DHT22;4359;49.358;11.256;2024-02-15T06:32:16;7.40;99.90
8643;DHT22;4359;49.358;11.256;2024-02-15T06:35:00;7.40;99.90
8643;DHT22;4359;49.358;11.256;2024-02-15T06:37:44;7.40;99.90
8643;DHT22;4359;49.358;11.256;2024-02-15T06:40:28;7.50;99.90
8643;DHT22;4359;49.358;11.256;2024-02-15T06:42:56;7.60;99.90
8643;DHT22;4359;49.358;11.256;2024-02-15T06:45:21;7.60;99.90
8643;DHT22;4359;49.358;11.256;2024-02-15T06:47:48;7.60;99.90
8643;DHT22;4359;49.358;11.256;2024-02-15T06:50:14;7.60;99.90
8643;DHT22;4359;49.358;11.256;2024-02-15T06:52:40;7.60;99.90
8643;DHT22;4359;49.358;11.256;2024-02-15T06:55:07;7.70;99.90
8643;DHT22;4359;49.358;11.256;2024-02-15T06:57:34;7.70;99.90
8643;DHT22;4359;49.358;11.256;2024-02-15T07:00:06;7.70;99.90
8643;DHT22;4359;49.358;11.256;2024-02-15T07:02:39;7.60;99.90
8643;DHT22;4359;49.358;11.256;2024-02-15T07:05:06;7.60;99.90
8643;DHT22;4359;49.358;11.256;2024-02-15T07:07:32;7.50;99.90
8643;DHT22;4359;49.358;11.256;2024-02-15T07:09:59;7.60;99.90
8643;DHT22;4359;49.358;11.256;2024-02-15T07:12:28;7.60;99.90
8643;DHT22;4359;49.358;11.256;2024-02-15T07:14:53;7.60;99.90
8643;DHT22;4359;49.358;11.256;2024-02-15T07:17:20;7.60;99.90
8643;DHT22;4359;49.358;11.256;2024-02-15T07:19:46;7.70;99.90
8643;DHT22;4359;49.358;11.256;2024-02-15T07:22:15;7.70;99.90
8643;DHT22;4359;49.358;11.256;2024-02-15T07:24:42;7.70;99.90
8643;DHT22;4359;49.358;11.256;2024-02-15T07:27:07;7.80;99.90
8643;DHT22;4359;49.358;11.256;2024-02-15T07:29:34;7.80;99.90
8643;DHT22;4359;49.358;11.256;2024-02-15T07:32:05;7.90;99.90
8643;DHT22;4359;49.358;11.256;2024-02-15T07:34:31;7.90;99.90
8643;DHT22;4359;49.358;11.256;2024-02-15T07:36:58;8.10;99.90
8643;DHT22;4359;49.358;11.256;2024-02-15T07:39:25;8.10;99.90
8643;DHT22;4359;49.358;11.256;2024-02-15T07:41:54;8.10;99.90
8643;DHT22;4359;49.358;11.256;2024-02-15T07:44:20;8.30;99.90
8643;DHT22;4359;49.358;11.256;2024-02-15T07:46:47;8.40;99.90
8643;DHT22;4359;49.358;11.256;2024-02-15T07:49:13;8.40;99.90
8643;DHT22;4359;49.358;11.256;2024-02-15T07:51:39;8.50;99.90
8643;DHT22;4359;49.358;11.256;2024-02-15T07:54:05;8.60;99.90
8643;DHT22;4359;49.358;11.256;2024-02-15T07:56:31;8.60;99.90
8643;DHT22;4359;49.358;11.256;2024-02-15T07:58:57;8.70;99.90
8643;DHT22;4359;49.358;11.256;2024-02-15T08:01:23;8.70;99.90
8643;DHT22;4359;49.358;11.256;2024-02-15T08:03:49;8.90;99.90
8643;DHT22;4359;49.358;11.256;2024-02-15T08:06:16;8.90;99.90
8643;DHT22;4359;49.358;11.256;2024-02-15T08:08:46;8.90;99.90
8643;DHT22;4359;49.358;11.256;2024-02-15T08:11:13;9.00;99.90
8643;DHT22;4359;49.358;11.256;2024-02-15T08:13:45;9.00;99.90
8643;DHT22;4359;49.358;11.256;2024-02-15T08:16:13;9.00;99.90
8643;DHT22;4359;49.358;11.256;2024-02-15T08:18:42;9.00;99.90
8643;DHT22;4359;49.358;11.256;2024-02-15T08:21:09;9.00;99.90
8643;DHT22;4359;49.358;11.256;2024-02-15T08:23:36;9.10;99.90
8643;DHT22;4359;49.358;11.256;2024-02-15T08:26:01;9.20;99.90
8643;DHT22;4359;49.358;11.256;2024-02-15T08:28:27;9.20;99.90
8643;DHT22;4359;49.358;11.256;2024-02-15T08:30:56;9.20;99.90
8643;DHT22;4359;49.358;11.256;2024-02-15T08:33:25;9.20;99.90
8643;DHT22;4359;49.358;11.256;2024-02-15T08:35:54;9.30;99.90
8643;DHT22;4359;49.358;11.256;2024-02-15T08:38:23;9.30;99.90
8643;DHT22;4359;49.358;11.256;2024-02-15T08:40:49;9.40;99.90
8643;DHT22;4359;49.358;11.256;2024-02-15T08:43:15;9.70;99.90
8643;DHT22;4359;49.358;11.256;2024-02-15T08:45:41;9.80;99.90
8643;DHT22;4359;49.358;11.256;2024-02-15T08:48:07;9.90;99.90
8643;DHT22;4359;49.358;11.256;2024-02-15T08:50:33;10.10;99.90
8643;DHT22;4359;49.358;11.256;2024-02-15T08:52:58;10.10;99.90
8643;DHT22;4359;49.358;11.256;2024-02-15T08:55:24;10.20;99.90
8643;DHT22;4359;49.358;11.256;2024-02-15T08:57:52;10.30;99.90
8643;DHT22;4359;49.358;11.256;2024-02-15T09:00:18;10.30;99.90
8643;DHT22;4359;49.358;11.256;2024-02-15T09:02:48;10.30;99.90
8643;DHT22;4359;49.358;11.256;2024-02-15T09:05:18;10.40;99.90
8643;DHT22;4359;49.358;11.256;2024-02-15T09:07:45;10.40;99.90
8643;DHT22;4359;49.358;11.256;2024-02-15T09:10:14;10.50;99.90
8643;DHT22;4359;49.358;11.256;2024-02-15T09:12:41;10.50;99.90
8643;DHT22;4359;49.358;11.256;2024-02-15T09:15:09;10.60;99.90
8643;DHT22;4359;49.358;11.256;2024-02-15T09:17:36;10.60;99.90
8643;DHT22;4359;49.358;11.256;2024-02-15T09:20:09;10.60;99.90
8643;DHT22;4359;49.358;11.256;2024-02-15T09:22:43;10.70;99.90
8643;DHT22;4359;49.358;11.256;2024-02-15T09:25:11;10.80;99.90
8643;DHT22;4359;49.358;11.256;2024-02-15T09:27:41;10.90;99.90
8643;DHT22;4359;49.358;11.256;2024-02-15T09:30:07;11.10;99.90
8643;DHT22;4359;49.358;11.256;2024-02-15T09:32:41;11.20;99.90
8643;DHT22;4359;49.358;11.256;2024-02-15T09:35:07;11.30;99.90
8643;DHT22;4359;49.358;11.256;2024-02-15T09:37:36;11.40;99.90
8643;DHT22;4359;49.358;11.256;2024-02-15T09:40:07;11.60;99.90
8643;DHT22;4359;49.358;11.256;2024-02-15T09:42:35;11.60;99.90
8643;DHT22;4359;49.358;11.256;2024-02-15T09:45:01;11.90;99.90
8643;DHT22;4359;49.358;11.256;2024-02-15T09:47:37;12.00;99.90
8643;DHT22;4359;49.358;11.256;2024-02-15T09:50:09;12.10;99.90
8643;DHT22;4359;49.358;11.256;2024-02-15T09:52:40;12.10;99.90
8643;DHT22;4359;49.358;11.256;2024-02-15T09:55:07;12.10;99.90
8643;DHT22;4359;49.358;11.256;2024-02-15T09:57:42;12.20;99.90
8643;DHT22;4359;49.358;11.256;2024-02-15T10:00:08;12.30;99.90
8643;DHT22;4359;49.358;11.256;2024-02-15T10:02:40;12.50;99.90
8643;DHT22;4359;49.358;11.256;2024-02-15T10:05:07;12.50;99.90
8643;DHT22;4359;49.358;11.256;2024-02-15T10:07:38;12.50;99.90
8643;DHT22;4359;49.358;11.256;2024-02-15T10:10:17;12.70;99.90
8643;DHT22;4359;49.358;11.256;2024-02-15T10:12:44;12.60;99.90
8643;DHT22;4359;49.358;11.256;2024-02-15T10:15:10;12.70;99.90
8643;DHT22;4359;49.358;11.256;2024-02-15T10:17:35;12.90;99.90
8643;DHT22;4359;49.358;11.256;2024-02-15T10:20:06;13.00;99.90
8643;DHT22;4359;49.358;11.256;2024-02-15T10:22:32;13.20;99.90
8643;DHT22;4359;49.358;11.256;2024-02-15T10:25:14;13.40;99.90
8643;DHT22;4359;49.358;11.256;2024-02-15T10:27:42;13.60;99.90
8643;DHT22;4359;49.358;11.256;2024-02-15T10:30:18;13.90;99.90
8643;DHT22;4359;49.358;11.256;2024-02-15T10:32:45;14.00;99.90
8643;DHT22;4359;49.358;11.256;2024-02-15T10:35:19;14.00;99.90
8643;DHT22;4359;49.358;11.256;2024-02-15T10:37:47;14.20;99.90
8643;DHT22;4359;49.358;11.256;2024-02-15T10:40:17;14.30;99.90
8643;DHT22;4359;49.358;11.256;2024-02-15T10:42:48;14.30;99.90
8643;DHT22;4359;49.358;11.256;2024-02-15T10:45:16;14.60;99.90
8643;DHT22;4359;49.358;11.256;2024-02-15T10:47:55;14.40;99.90
8643;DHT22;4359;49.358;11.256;2024-02-15T10:50:21;14.70;99.90
8643;DHT22;4359;49.358;11.256;2024-02-15T10:52:55;14.90;99.90
8643;DHT22;4359;49.358;11.256;2024-02-15T10:55:46;15.00;99.90
8643;DHT22;4359;49.358;11.256;2024-02-15T10:58:18;15.10;99.90
8643;DHT22;4359;49.358;11.256;2024-02-15T11:00:46;14.90;99.90
8643;DHT22;4359;49.358;11.256;2024-02-15T11:03:19;14.80;99.90
8643;DHT22;4359;49.358;11.256;2024-02-15T11:05:47;14.80;99.90
8643;DHT22;4359;49.358;11.256;2024-02-15T11:08:13;14.90;99.90
8643;DHT22;4359;49.358;11.256;2024-02-15T11:10:39;15.10;99.90
8643;DHT22;4359;49.358;11.256;2024-02-15T11:13:09;15.40;99.90
8643;DHT22;4359;49.358;11.256;2024-02-15T11:18:01;15.60;99.90
8643;DHT22;4359;49.358;11.256;2024-02-15T11:22:59;15.50;99.90
8643;DHT22;4359;49.358;11.256;2024-02-15T11:25:38;15.40;99.90
8643;DHT22;4359;49.358;11.256;2024-02-15T11:30:49;14.90;99.90
8643;DHT22;4359;49.358;11.256;2024-02-15T11:36:11;14.90;99.90
8643;DHT22;4359;49.358;11.256;2024-02-15T11:38:39;15.10;99.90
8643;DHT22;4359;49.358;11.256;2024-02-15T11:41:08;15.30;99.90
8643;DHT22;4359;49.358;11.256;2024-02-15T11:46:17;15.50;99.90
8643;DHT22;4359;49.358;11.256;2024-02-15T11:48:50;15.60;99.90
8643;DHT22;4359;49.358;11.256;2024-02-15T11:51:29;15.80;99.90
8643;DHT22;4359;49.358;11.256;2024-02-15T11:57:17;16.00;99.90
8643;DHT22;4359;49.358;11.256;2024-02-15T11:59:51;16.10;99.90
8643;DHT22;4359;49.358;11.256;2024-02-15T12:02:39;16.20;99.90
8643;DHT22;4359;49.358;11.256;2024-02-15T12:05:23;16.20;99.90
8643;DHT22;4359;49.358;11.256;2024-02-15T12:08:09;16.20;99.90
8643;DHT22;4359;49.358;11.256;2024-02-15T12:11:00;16.20;99.90
8643;DHT22;4359;49.358;11.256;2024-02-15T12:13:50;16.50;99.90
8643;DHT22;4359;49.358;11.256;2024-02-15T12:16:35;17.00;99.90
8643;DHT22;4359;49.358;11.256;2024-02-15T12:19:20;17.30;99.90
8643;DHT22;4359;49.358;11.256;2024-02-15T12:21:47;17.20;99.90
8643;DHT22;4359;49.358;11.256;2024-02-15T12:24:14;17.20;99.90
8643;DHT22;4359;49.358;11.256;2024-02-15T12:26:40;17.30;99.90
8643;DHT22;4359;49.358;11.256;2024-02-15T12:29:08;17.20;99.90
8643;DHT22;4359;49.358;11.256;2024-02-15T12:31:36;17.20;99.90
8643;DHT22;4359;49.358;11.256;2024-02-15T12:34:04;17.60;99.90
8643;DHT22;4359;49.358;11.256;2024-02-15T12:36:36;17.70;99.90
8643;DHT22;4359;49.358;11.256;2024-02-15T12:39:04;17.70;99.90
8643;DHT22;4359;49.358;11.256;2024-02-15T12:41:40;17.80;99.90
8643;DHT22;4359;49.358;11.256;2024-02-15T12:44:09;18.10;99.90
8643;DHT22;4359;49.358;11.256;2024-02-15T12:46:36;18.20;99.90
8643;DHT22;4359;49.358;11.256;2024-02-15T12:51:52;18.30;99.90
8643;DHT22;4359;49.358;11.256;2024-02-15T12:54:22;18.30;99.90
8643;DHT22;4359;49.358;11.256;2024-02-15T12:56:48;18.10;99.90
8643;DHT22;4359;49.358;11.256;2024-02-15T12:59:19;18.00;99.90
8643;DHT22;4359;49.358;11.256;2024-02-15T13:01:46;18.00;99.90
8643;DHT22;4359;49.358;11.256;2024-02-15T13:04:23;18.10;99.90
8643;DHT22;4359;49.358;11.256;2024-02-15T13:06:49;17.80;99.90
8643;DHT22;4359;49.358;11.256;2024-02-15T13:09:15;17.70;99.90
8643;DHT22;4359;49.358;11.256;2024-02-15T13:11:41;17.60;99.90
8643;DHT22;4359;49.358;11.256;2024-02-15T13:14:10;17.60;99.90
8643;DHT22;4359;49.358;11.256;2024-02-15T13:16:36;17.60;99.90
8643;DHT22;4359;49.358;11.256;2024-02-15T13:19:02;17.90;99.90
8643;DHT22;4359;49.358;11.256;2024-02-15T13:21:29;17.80;99.90
8643;DHT22;4359;49.358;11.256;2024-02-15T13:23:56;17.90;99.90
8643;DHT22;4359;49.358;11.256;2024-02-15T13:26:22;17.90;99.90
8643;DHT22;4359;49.358;11.256;2024-02-15T13:28:51;18.10;99.90
8643;DHT22;4359;49.358;11.256;2024-02-15T13:31:17;18.10;99.90
8643;DHT22;4359;49.358;11.256;2024-02-15T13:33:43;18.30;99.90
8643;DHT22;4359;49.358;11.256;2024-02-15T13:36:09;18.40;99.90
8643;DHT22;4359;49.358;11.256;2024-02-15T13:38:39;18.10;99.90
8643;DHT22;4359;49.358;11.256;2024-02-15T13:41:04;17.90;99.90
8643;DHT22;4359;49.358;11.256;2024-02-15T13:43:31;17.50;99.90
8643;DHT22;4359;49.358;11.256;2024-02-15T13:45:57;17.60;99.90
8643;DHT22;4359;49.358;11.256;2024-02-15T13:48:27;17.60;99.90
8643;DHT22;4359;49.358;11.256;2024-02-15T13:50:55;17.40;99.90
8643;DHT22;4359;49.358;11.256;2024-02-15T13:53:20;17.40;99.90
8643;DHT22;4359;49.358;11.256;2024-02-15T13:55:46;17.10;99.90
8643;DHT22;4359;49.358;11.256;2024-02-15T13:58:13;16.80;99.90
8643;DHT22;4359;49.358;11.256;2024-02-15T14:00:40;16.60;99.90
8643;DHT22;4359;49.358;11.256;2024-02-15T14:03:08;16.60;99.90
8643;DHT22;4359;49.358;11.256;2024-02-15T14:05:35;16.70;99.90
8643;DHT22;4359;49.358;11.256;2024-02-15T14:08:04;16.60;99.90
8643;DHT22;4359;49.358;11.256;2024-02-15T14:10:40;16.50;99.90
8643;DHT22;4359;49.358;11.256;2024-02-15T14:13:06;16.30;99.90
8643;DHT22;4359;49.358;11.256;2024-02-15T14:15:34;16.20;99.90
8643;DHT22;4359;49.358;11.256;2024-02-15T14:18:07;16.00;99.90
8643;DHT22;4359;49.358;11.256;2024-02-15T14:20:36;15.90;99.90
8643;DHT22;4359;49.358;11.256;2024-02-15T14:23:02;15.90;99.90
8643;DHT22;4359;49.358;11.256;2024-02-15T14:25:32;15.90;99.90
8643;DHT22;4359;49.358;11.256;2024-02-15T14:27:58;15.90;99.90
8643;DHT22;4359;49.358;11.256;2024-02-15T14:30:24;15.80;99.90
8643;DHT22;4359;49.358;11.256;2024-02-15T14:33:09;15.80;99.90
8643;DHT22;4359;49.358;11.256;2024-02-15T14:35:38;15.80;99.90
8643;DHT22;4359;49.358;11.256;2024-02-15T14:38:09;15.80;99.90
8643;DHT22;4359;49.358;11.256;2024-02-15T14:40:43;15.70;99.90
8643;DHT22;4359;49.358;11.256;2024-02-15T14:43:16;15.60;99.90
8643;DHT22;4359;49.358;11.256;2024-02-15T14:45:43;15.60;99.90
8643;DHT22;4359;49.358;11.256;2024-02-15T14:48:09;15.50;99.90
8643;DHT22;4359;49.358;11.256;2024-02-15T14:50:41;15.40;99.90
8643;DHT22;4359;49.358;11.256;2024-02-15T14:53:07;15.50;99.90
8643;DHT22;4359;49.358;11.256;2024-02-15T14:55:37;15.40;99.90
8643;DHT22;4359;49.358;11.256;2024-02-15T14:58:08;15.20;99.90
8643;DHT22;4359;49.358;11.256;2024-02-15T15:00:37;15.10;99.90
8643;DHT22;4359;49.358;11.256;2024-02-15T15:03:03;15.00;99.90
8643;DHT22;4359;49.358;11.256;2024-02-15T15:05:29;15.10;99.90
8643;DHT22;4359;49.358;11.256;2024-02-15T15:08:14;15.10;99.90
8643;DHT22;4359;49.358;11.256;2024-02-15T15:10:58;15.00;99.90
8643;DHT22;4359;49.358;11.256;2024-02-15T15:13:43;15.00;99.90
8643;DHT22;4359;49.358;11.256;2024-02-15T15:16:08;14.90;99.90
8643;DHT22;4359;49.358;11.256;2024-02-15T15:18:39;14.90;99.90
8643;DHT22;4359;49.358;11.256;2024-02-15T15:21:05;14.90;99.90
8643;DHT22;4359;49.358;11.256;2024-02-15T15:23:31;14.90;99.90
8643;DHT22;4359;49.358;11.256;2024-02-15T15:26:00;14.80;99.90
8643;DHT22;4359;49.358;11.256;2024-02-15T15:28:26;14.70;99.90
8643;DHT22;4359;49.358;11.256;2024-02-15T15:30:53;14.70;99.90
8643;DHT22;4359;49.358;11.256;2024-02-15T15:33:18;14.70;99.90
8643;DHT22;4359;49.358;11.256;2024-02-15T15:35:45;14.70;99.90
8643;DHT22;4359;49.358;11.256;2024-02-15T15:38:11;14.60;99.90
8643;DHT22;4359;49.358;11.256;2024-02-15T15:40:37;14.60;99.90
8643;DHT22;4359;49.358;11.256;2024-02-15T15:43:03;14.50;99.90
8643;DHT22;4359;49.358;11.256;2024-02-15T15:45:29;14.40;99.90
8643;DHT22;4359;49.358;11.256;2024-02-15T15:47:55;14.30;99.90
8643;DHT22;4359;49.358;11.256;2024-02-15T15:50:20;14.20;99.90
8643;DHT22;4359;49.358;11.256;2024-02-15T15:52:47;14.10;99.90
8643;DHT22;4359;49.358;11.256;2024-02-15T15:55:13;14.00;99.90
8643;DHT22;4359;49.358;11.256;2024-02-15T15:57:40;14.00;99.90
8643;DHT22;4359;49.358;11.256;2024-02-15T16:00:10;13.80;99.90
8643;DHT22;4359;49.358;11.256;2024-02-15T16:02:44;13.60;99.90
8643;DHT22;4359;49.358;11.256;2024-02-15T16:05:11;13.50;99.90
8643;DHT22;4359;49.358;11.256;2024-02-15T16:07:38;13.30;99.90
8643;DHT22;4359;49.358;11.256;2024-02-15T16:10:06;13.20;99.90
8643;DHT22;4359;49.358;11.256;2024-02-15T16:12:34;13.00;99.90
8643;DHT22;4359;49.358;11.256;2024-02-15T16:15:01;12.80;99.90
8643;DHT22;4359;49.358;11.256;2024-02-15T16:17:26;12.70;99.90
8643;DHT22;4359;49.358;11.256;2024-02-15T16:19:53;12.60;99.90
8643;DHT22;4359;49.358;11.256;2024-02-15T16:22:19;12.50;99.90